sensor_id;sensor_type;location;lat;lon;timestamp;pressure;altitude;pressure_sealevel;temperature;humidity
21433;BME280;18592;49.708;10.900;2023-04-26T00:01:48;98592.69;;;16.36;46.11
21433;BME280;18592;49.708;10.900;2023-04-26T00:03:49;98600.09;;;16.36;46.11
21433;BME280;18592;49.708;10.900;2023-04-26T00:05:51;98606.44;;;16.36;46.12
21433;BME280;18592;49.708;10.900;2023-04-26T00:07:53;98597.34;;;16.36;46.30
21433;BME280;18592;49.708;10.900;2023-04-26T00:09:55;98602.84;;;16.36;46.28
21433;BME280;18592;49.708;10.900;2023-04-26T00:11:56;98603.41;;;16.33;46.33
21433;BME280;18592;49.708;10.900;2023-04-26T00:13:58;98611.16;;;16.31;46.41
21433;BME280;18592;49.708;10.900;2023-04-26T00:15:59;98602.91;;;16.31;46.73
21433;BME280;18592;49.708;10.900;2023-04-26T00:18:01;98607.56;;;16.30;46.65
21433;BME280;18592;49.708;10.900;2023-04-26T00:20:03;98609.50;;;16.30;46.76
21433;BME280;18592;49.708;10.900;2023-04-26T00:22:07;98615.81;;;16.30;47.04
21433;BME280;18592;49.708;10.900;2023-04-26T00:24:09;98613.06;;;16.30;46.83
21433;BME280;18592;49.708;10.900;2023-04-26T00:26:10;98606.75;;;16.30;47.10
21433;BME280;18592;49.708;10.900;2023-04-26T00:28:12;98610.31;;;16.30;46.78
21433;BME280;18592;49.708;10.900;2023-04-26T00:30:13;98612.25;;;16.30;46.85
21433;BME280;18592;49.708;10.900;2023-04-26T00:32:15;98616.38;;;16.27;46.79
21433;BME280;18592;49.708;10.900;2023-04-26T00:34:16;98613.63;;;16.27;46.76
21433;BME280;18592;49.708;10.900;2023-04-26T00:36:18;98611.19;;;16.26;46.34
21433;BME280;18592;49.708;10.900;2023-04-26T00:38:19;98613.16;;;16.20;46.14
21433;BME280;18592;49.708;10.900;2023-04-26T00:40:21;98611.78;;;16.18;46.19
21433;BME280;18592;49.708;10.900;2023-04-26T00:42:22;98614.00;;;16.16;46.41
21433;BME280;18592;49.708;10.900;2023-04-26T00:44:24;98613.19;;;16.15;46.33
21433;BME280;18592;49.708;10.900;2023-04-26T00:46:26;98612.91;;;16.12;46.42
21433;BME280;18592;49.708;10.900;2023-04-26T00:48:29;98610.75;;;16.09;46.24
21433;BME280;18592;49.708;10.900;2023-04-26T00:50:31;98610.19;;;16.07;46.41
21433;BME280;18592;49.708;10.900;2023-04-26T00:52:32;98615.16;;;16.05;46.37
21433;BME280;18592;49.708;10.900;2023-04-26T00:54:34;98615.47;;;16.03;46.45
21433;BME280;18592;49.708;10.900;2023-04-26T00:56:37;98608.63;;;16.01;46.88
21433;BME280;18592;49.708;10.900;2023-04-26T00:58:39;98610.84;;;15.99;46.83
21433;BME280;18592;49.708;10.900;2023-04-26T01:00:40;98607.25;;;15.98;46.86
21433;BME280;18592;49.708;10.900;2023-04-26T01:02:42;98611.09;;;15.97;46.90
21433;BME280;18592;49.708;10.900;2023-04-26T01:04:44;98615.25;;;15.95;46.94
21433;BME280;18592;49.708;10.900;2023-04-26T01:06:46;98613.63;;;15.94;46.99
21433;BME280;18592;49.708;10.900;2023-04-26T01:08:52;98615.78;;;15.92;47.17
21433;BME280;18592;49.708;10.900;2023-04-26T01:10:57;98612.53;;;15.89;47.16
21433;BME280;18592;49.708;10.900;2023-04-26T01:13:00;98613.66;;;15.88;47.21
21433;BME280;18592;49.708;10.900;2023-04-26T01:15:02;98616.94;;;15.85;47.34
21433;BME280;18592;49.708;10.900;2023-04-26T01:17:03;98616.13;;;15.85;47.56
21433;BME280;18592;49.708;10.900;2023-04-26T01:19:07;98612.53;;;15.84;47.46
21433;BME280;18592;49.708;10.900;2023-04-26T01:21:18;98617.22;;;15.84;47.70
21433;BME280;18592;49.708;10.900;2023-04-26T01:23:21;98619.16;;;15.83;47.56
21433;BME280;18592;49.708;10.900;2023-04-26T01:25:23;98619.44;;;15.82;47.36
21433;BME280;18592;49.708;10.900;2023-04-26T01:27:24;98613.69;;;15.78;47.42
21433;BME280;18592;49.708;10.900;2023-04-26T01:29:26;98617.53;;;15.77;47.54
21433;BME280;18592;49.708;10.900;2023-04-26T01:31:27;98616.72;;;15.77;47.79
21433;BME280;18592;49.708;10.900;2023-04-26T01:33:29;98616.72;;;15.77;47.89
21433;BME280;18592;49.708;10.900;2023-04-26T01:35:31;98620.59;;;15.76;47.69
21433;BME280;18592;49.708;10.900;2023-04-26T01:37:32;98623.59;;;15.74;47.75
21433;BME280;18592;49.708;10.900;2023-04-26T01:39:34;98629.09;;;15.74;47.72
21433;BME280;18592;49.708;10.900;2023-04-26T01:41:36;98629.09;;;15.74;47.71
21433;BME280;18592;49.708;10.900;2023-04-26T01:43:38;98634.59;;;15.74;47.82
21433;BME280;18592;49.708;10.900;2023-04-26T01:45:39;98632.97;;;15.73;48.05
21433;BME280;18592;49.708;10.900;2023-04-26T01:48:00;98633.22;;;15.72;47.99
21433;BME280;18592;49.708;10.900;2023-04-26T01:50:07;98640.13;;;15.69;47.92
21433;BME280;18592;49.708;10.900;2023-04-26T01:52:09;98642.31;;;15.67;48.07
21433;BME280;18592;49.708;10.900;2023-04-26T01:54:10;98642.31;;;15.67;48.04
21433;BME280;18592;49.708;10.900;2023-04-26T01:56:12;98645.38;;;15.66;48.06
21433;BME280;18592;49.708;10.900;2023-04-26T01:58:13;98637.38;;;15.64;47.93
21433;BME280;18592;49.708;10.900;2023-04-26T02:00:15;98640.44;;;15.63;47.62
21433;BME280;18592;49.708;10.900;2023-04-26T02:02:17;98643.72;;;15.60;47.80
21433;BME280;18592;49.708;10.900;2023-04-26T02:04:21;98645.94;;;15.58;48.02
21433;BME280;18592;49.708;10.900;2023-04-26T02:06:24;98640.72;;;15.56;47.78
21433;BME280;18592;49.708;10.900;2023-04-26T02:08:26;98638.56;;;15.53;47.82
21433;BME280;18592;49.708;10.900;2023-04-26T02:10:28;98638.00;;;15.51;48.07
21433;BME280;18592;49.708;10.900;2023-04-26T02:12:29;98640.50;;;15.48;48.09
21433;BME280;18592;49.708;10.900;2023-04-26T02:14:31;98642.41;;;15.47;48.00
21433;BME280;18592;49.708;10.900;2023-04-26T02:16:32;98638.00;;;15.46;48.15
21433;BME280;18592;49.708;10.900;2023-04-26T02:18:34;98632.50;;;15.46;48.40
21433;BME280;18592;49.708;10.900;2023-04-26T02:20:35;98635.53;;;15.45;48.16
21433;BME280;18592;49.708;10.900;2023-04-26T02:22:38;98639.13;;;15.45;48.09
21433;BME280;18592;49.708;10.900;2023-04-26T02:24:39;98627.53;;;15.43;48.12
21433;BME280;18592;49.708;10.900;2023-04-26T02:26:41;98629.50;;;15.43;48.10
21433;BME280;18592;49.708;10.900;2023-04-26T02:28:43;98631.41;;;15.42;48.41
21433;BME280;18592;49.708;10.900;2023-04-26T02:30:44;98633.34;;;15.42;48.50
21433;BME280;18592;49.708;10.900;2023-04-26T02:32:46;98634.41;;;15.41;48.51
21433;BME280;18592;49.708;10.900;2023-04-26T02:34:47;98631.66;;;15.41;48.56
21433;BME280;18592;49.708;10.900;2023-04-26T02:36:49;98622.63;;;15.40;48.54
21433;BME280;18592;49.708;10.900;2023-04-26T02:38:50;98629.22;;;15.39;48.82
21433;BME280;18592;49.708;10.900;2023-04-26T02:41:02;98631.97;;;15.39;49.12
21433;BME280;18592;49.708;10.900;2023-04-26T02:43:05;98634.72;;;15.39;48.57
21433;BME280;18592;49.708;10.900;2023-04-26T02:45:06;98633.06;;;15.38;48.98
21433;BME280;18592;49.708;10.900;2023-04-26T02:47:08;98630.31;;;15.38;48.58
21433;BME280;18592;49.708;10.900;2023-04-26T02:49:10;98624.28;;;15.36;48.47
21433;BME280;18592;49.708;10.900;2023-04-26T02:51:12;98635.25;;;15.36;48.75
21433;BME280;18592;49.708;10.900;2023-04-26T02:53:14;98636.38;;;15.35;48.83
21433;BME280;18592;49.708;10.900;2023-04-26T02:55:16;98634.72;;;15.34;48.88
21433;BME280;18592;49.708;10.900;2023-04-26T02:57:17;98643.50;;;15.36;49.20
21433;BME280;18592;49.708;10.900;2023-04-26T02:59:19;98639.41;;;15.34;49.14
21433;BME280;18592;49.708;10.900;2023-04-26T03:01:21;98635.81;;;15.33;49.16
21433;BME280;18592;49.708;10.900;2023-04-26T03:03:22;98634.72;;;15.34;49.09
21433;BME280;18592;49.708;10.900;2023-04-26T03:05:24;98640.22;;;15.34;49.17
21433;BME280;18592;49.708;10.900;2023-04-26T03:07:26;98644.88;;;15.34;49.10
21433;BME280;18592;49.708;10.900;2023-04-26T03:09:28;98649.56;;;15.33;49.14
21433;BME280;18592;49.708;10.900;2023-04-26T03:11:29;98646.81;;;15.33;49.10
21433;BME280;18592;49.708;10.900;2023-04-26T03:13:31;98650.69;;;15.32;49.07
21433;BME280;18592;49.708;10.900;2023-04-26T03:15:33;98644.34;;;15.32;49.08
21433;BME280;18592;49.708;10.900;2023-04-26T03:17:34;98639.94;;;15.31;49.20
21433;BME280;18592;49.708;10.900;2023-04-26T03:19:36;98650.13;;;15.30;48.99
21433;BME280;18592;49.708;10.900;2023-04-26T03:21:38;98645.72;;;15.29;49.17
21433;BME280;18592;49.708;10.900;2023-04-26T03:23:40;98652.31;;;15.28;49.24
21433;BME280;18592;49.708;10.900;2023-04-26T03:25:42;98645.19;;;15.27;49.14
21433;BME280;18592;49.708;10.900;2023-04-26T03:27:44;98658.94;;;15.27;48.90
21433;BME280;18592;49.708;10.900;2023-04-26T03:29:45;98652.91;;;15.25;48.72
21433;BME280;18592;49.708;10.900;2023-04-26T03:31:47;98650.41;;;15.23;48.96
21433;BME280;18592;49.708;10.900;2023-04-26T03:33:48;98659.47;;;15.24;49.09
21433;BME280;18592;49.708;10.900;2023-04-26T03:35:50;98658.94;;;15.22;48.92
21433;BME280;18592;49.708;10.900;2023-04-26T03:37:51;98653.72;;;15.20;49.06
21433;BME280;18592;49.708;10.900;2023-04-26T03:39:54;98657.56;;;15.19;49.02
21433;BME280;18592;49.708;10.900;2023-04-26T03:41:56;98661.97;;;15.15;48.95
21433;BME280;18592;49.708;10.900;2023-04-26T03:43:58;98658.41;;;15.15;49.24
21433;BME280;18592;49.708;10.900;2023-04-26T03:45:59;98653.19;;;15.13;48.76
21433;BME280;18592;49.708;10.900;2023-04-26T03:48:01;98658.97;;;15.12;49.04
21433;BME280;18592;49.708;10.900;2023-04-26T03:50:03;98661.97;;;15.10;49.14
21433;BME280;18592;49.708;10.900;2023-04-26T03:52:04;98660.34;;;15.09;49.34
21433;BME280;18592;49.708;10.900;2023-04-26T03:54:06;98662.25;;;15.09;49.22
21433;BME280;18592;49.708;10.900;2023-04-26T03:56:07;98654.56;;;15.06;49.13
21433;BME280;18592;49.708;10.900;2023-04-26T03:58:10;98663.09;;;15.04;48.88
21433;BME280;18592;49.708;10.900;2023-04-26T04:00:13;98661.72;;;15.02;48.90
21433;BME280;18592;49.708;10.900;2023-04-26T04:02:17;98672.16;;;15.00;49.14
21433;BME280;18592;49.708;10.900;2023-04-26T04:04:19;98668.06;;;14.97;49.25
21433;BME280;18592;49.708;10.900;2023-04-26T04:06:21;98664.47;;;14.97;49.42
21433;BME280;18592;49.708;10.900;2023-04-26T04:08:23;98673.81;;;14.96;49.30
21433;BME280;18592;49.708;10.900;2023-04-26T04:10:25;98675.19;;;14.93;49.46
21433;BME280;18592;49.708;10.900;2023-04-26T04:12:27;98668.84;;;14.93;49.37
21433;BME280;18592;49.708;10.900;2023-04-26T04:14:29;98667.22;;;14.92;49.57
21433;BME280;18592;49.708;10.900;2023-04-26T04:16:30;98664.50;;;14.92;49.60
21433;BME280;18592;49.708;10.900;2023-04-26T04:18:32;98673.81;;;14.91;49.96
21433;BME280;18592;49.708;10.900;2023-04-26T04:20:34;98668.59;;;14.89;50.07
21433;BME280;18592;49.708;10.900;2023-04-26T04:22:35;98676.00;;;14.89;50.00
21433;BME280;18592;49.708;10.900;2023-04-26T04:24:39;98679.84;;;14.88;49.79
21433;BME280;18592;49.708;10.900;2023-04-26T04:26:41;98681.50;;;14.89;49.78
21433;BME280;18592;49.708;10.900;2023-04-26T04:28:43;98684.53;;;14.87;49.68
21433;BME280;18592;49.708;10.900;2023-04-26T04:30:45;98682.88;;;14.86;50.04
21433;BME280;18592;49.708;10.900;2023-04-26T04:32:47;98683.72;;;14.87;49.82
21433;BME280;18592;49.708;10.900;2023-04-26T04:34:50;98684.25;;;14.84;49.99
21433;BME280;18592;49.708;10.900;2023-04-26T04:36:54;98688.09;;;14.83;50.26
21433;BME280;18592;49.708;10.900;2023-04-26T04:38:55;98693.56;;;14.83;50.21
21433;BME280;18592;49.708;10.900;2023-04-26T04:40:57;98694.41;;;14.83;50.11
21433;BME280;18592;49.708;10.900;2023-04-26T04:42:59;98706.22;;;14.84;50.00
21433;BME280;18592;49.708;10.900;2023-04-26T04:45:05;98697.16;;;14.83;50.08
21433;BME280;18592;49.708;10.900;2023-04-26T04:47:09;98698.25;;;14.82;50.14
21433;BME280;18592;49.708;10.900;2023-04-26T04:49:11;98697.44;;;14.82;49.88
21433;BME280;18592;49.708;10.900;2023-04-26T04:51:13;98702.38;;;14.80;49.86
21433;BME280;18592;49.708;10.900;2023-04-26T04:53:15;98698.81;;;14.79;49.91
21433;BME280;18592;49.708;10.900;2023-04-26T04:55:16;98703.47;;;14.79;49.86
21433;BME280;18592;49.708;10.900;2023-04-26T04:57:18;98703.47;;;14.79;49.96
21433;BME280;18592;49.708;10.900;2023-04-26T04:59:21;98700.72;;;14.79;49.87
21433;BME280;18592;49.708;10.900;2023-04-26T05:01:23;98705.66;;;14.77;50.02
21433;BME280;18592;49.708;10.900;2023-04-26T05:03:28;98707.59;;;14.76;50.20
21433;BME280;18592;49.708;10.900;2023-04-26T05:05:30;98708.41;;;14.77;49.92
21433;BME280;18592;49.708;10.900;2023-04-26T05:07:32;98715.81;;;14.76;50.16
21433;BME280;18592;49.708;10.900;2023-04-26T05:09:35;98712.78;;;14.78;50.44
21433;BME280;18592;49.708;10.900;2023-04-26T05:11:38;98719.94;;;14.79;50.48
21433;BME280;18592;49.708;10.900;2023-04-26T05:13:42;98711.16;;;14.77;50.38
21433;BME280;18592;49.708;10.900;2023-04-26T05:15:44;98714.72;;;14.77;50.19
21433;BME280;18592;49.708;10.900;2023-04-26T05:17:46;98718.28;;;14.78;50.35
21433;BME280;18592;49.708;10.900;2023-04-26T05:19:54;98724.59;;;14.78;50.62
21433;BME280;18592;49.708;10.900;2023-04-26T05:21:56;98722.69;;;14.79;50.64
21433;BME280;18592;49.708;10.900;2023-04-26T05:23:58;98723.22;;;14.81;50.79
21433;BME280;18592;49.708;10.900;2023-04-26T05:26:03;98723.75;;;14.83;50.91
21433;BME280;18592;49.708;10.900;2023-04-26T05:28:24;98730.38;;;14.82;50.82
21433;BME280;18592;49.708;10.900;2023-04-26T05:30:45;98729.25;;;14.83;50.24
21433;BME280;18592;49.708;10.900;2023-04-26T05:32:59;98725.72;;;14.82;50.30
21433;BME280;18592;49.708;10.900;2023-04-26T05:35:09;98740.22;;;14.83;50.08
21433;BME280;18592;49.708;10.900;2023-04-26T05:37:10;98734.47;;;14.79;49.71
21433;BME280;18592;49.708;10.900;2023-04-26T05:39:12;98731.44;;;14.81;50.14
21433;BME280;18592;49.708;10.900;2023-04-26T05:41:13;98741.06;;;14.83;50.16
21433;BME280;18592;49.708;10.900;2023-04-26T05:43:15;98737.22;;;14.84;50.37
21433;BME280;18592;49.708;10.900;2023-04-26T05:45:17;98741.06;;;14.88;50.46
21433;BME280;18592;49.708;10.900;2023-04-26T05:47:18;98740.81;;;14.90;50.40
21433;BME280;18592;49.708;10.900;2023-04-26T05:49:20;98740.22;;;14.93;50.18
21433;BME280;18592;49.708;10.900;2023-04-26T05:51:22;98747.66;;;14.97;50.62
21433;BME280;18592;49.708;10.900;2023-04-26T05:53:24;98745.19;;;15.01;50.35
21433;BME280;18592;49.708;10.900;2023-04-26T05:55:26;98748.22;;;15.04;49.97
21433;BME280;18592;49.708;10.900;2023-04-26T05:57:27;98744.91;;;15.07;50.10
21433;BME280;18592;49.708;10.900;2023-04-26T05:59:29;98747.66;;;15.12;50.21
21433;BME280;18592;49.708;10.900;2023-04-26T06:01:33;98757.81;;;15.17;50.10
21433;BME280;18592;49.708;10.900;2023-04-26T06:03:36;98755.88;;;15.22;49.76
21433;BME280;18592;49.708;10.900;2023-04-26T06:05:38;98756.69;;;15.28;50.13
21433;BME280;18592;49.708;10.900;2023-04-26T06:07:41;98750.09;;;15.34;50.25
21433;BME280;18592;49.708;10.900;2023-04-26T06:09:44;98755.28;;;15.41;50.50
21433;BME280;18592;49.708;10.900;2023-04-26T06:11:46;98757.50;;;15.49;50.45
21433;BME280;18592;49.708;10.900;2023-04-26T06:13:48;98761.63;;;15.56;50.29
21433;BME280;18592;49.708;10.900;2023-04-26T06:15:51;98762.97;;;15.64;50.34
21433;BME280;18592;49.708;10.900;2023-04-26T06:17:53;98763.22;;;15.72;49.84
21433;BME280;18592;49.708;10.900;2023-04-26T06:19:54;98763.75;;;15.79;49.83
21433;BME280;18592;49.708;10.900;2023-04-26T06:21:56;98757.16;;;15.85;49.58
21433;BME280;18592;49.708;10.900;2023-04-26T06:23:58;98768.13;;;15.96;49.36
21433;BME280;18592;49.708;10.900;2023-04-26T06:26:01;98766.72;;;16.03;49.27
21433;BME280;18592;49.708;10.900;2023-04-26T06:28:03;98757.06;;;16.11;49.23
21433;BME280;18592;49.708;10.900;2023-04-26T06:30:05;98766.09;;;16.21;49.44
21433;BME280;18592;49.708;10.900;2023-04-26T06:32:10;98752.81;;;16.33;49.60
21433;BME280;18592;49.708;10.900;2023-04-26T06:34:12;98753.59;;;16.44;49.32
21433;BME280;18592;49.708;10.900;2023-04-26T06:36:15;98755.72;;;16.57;49.46
21433;BME280;18592;49.708;10.900;2023-04-26T06:38:17;98757.31;;;16.68;49.12
21433;BME280;18592;49.708;10.900;2023-04-26T06:40:18;98757.75;;;16.80;47.75
21433;BME280;18592;49.708;10.900;2023-04-26T06:42:20;98767.63;;;16.86;47.61
21433;BME280;18592;49.708;10.900;2023-04-26T06:44:54;98762.06;;;16.96;47.39
21433;BME280;18592;49.708;10.900;2023-04-26T06:46:56;98764.19;;;17.04;47.21
21433;BME280;18592;49.708;10.900;2023-04-26T06:49:00;98754.50;;;17.12;47.14
21433;BME280;18592;49.708;10.900;2023-04-26T06:51:05;98752.75;;;17.21;47.29
21433;BME280;18592;49.708;10.900;2023-04-26T06:53:07;98752.66;;;17.31;47.51
21433;BME280;18592;49.708;10.900;2023-04-26T06:55:09;98756.44;;;17.40;47.78
21433;BME280;18592;49.708;10.900;2023-04-26T06:57:10;98759.09;;;17.50;47.48
21433;BME280;18592;49.708;10.900;2023-04-26T06:59:12;98751.03;;;17.59;46.82
21433;BME280;18592;49.708;10.900;2023-04-26T07:01:13;98753.47;;;17.65;46.50
21433;BME280;18592;49.708;10.900;2023-04-26T07:03:15;98756.69;;;17.72;46.17
21433;BME280;18592;49.708;10.900;2023-04-26T07:05:17;98765.72;;;17.78;45.86
21433;BME280;18592;49.708;10.900;2023-04-26T07:07:19;98757.91;;;17.85;46.12
21433;BME280;18592;49.708;10.900;2023-04-26T07:09:21;98756.16;;;17.94;46.25
21433;BME280;18592;49.708;10.900;2023-04-26T07:11:23;98761.03;;;18.02;46.22
21433;BME280;18592;49.708;10.900;2023-04-26T07:13:26;98761.47;;;18.09;45.93
21433;BME280;18592;49.708;10.900;2023-04-26T07:15:28;98763.59;;;18.17;45.82
21433;BME280;18592;49.708;10.900;2023-04-26T07:17:29;98756.91;;;18.23;45.57
21433;BME280;18592;49.708;10.900;2023-04-26T07:19:31;98759.28;;;18.30;45.12
21433;BME280;18592;49.708;10.900;2023-04-26T07:21:32;98757.28;;;18.35;45.10
21433;BME280;18592;49.708;10.900;2023-04-26T07:23:34;98758.03;;;18.41;44.93
21433;BME280;18592;49.708;10.900;2023-04-26T07:25:36;98758.84;;;18.47;44.68
21433;BME280;18592;49.708;10.900;2023-04-26T07:27:38;98756.00;;;18.52;44.38
21433;BME280;18592;49.708;10.900;2023-04-26T07:29:39;98756.72;;;18.57;44.33
21433;BME280;18592;49.708;10.900;2023-04-26T07:31:41;98760.25;;;18.63;44.40
21433;BME280;18592;49.708;10.900;2023-04-26T07:33:43;98758.75;;;18.70;44.59
21433;BME280;18592;49.708;10.900;2023-04-26T07:35:52;98758.66;;;18.75;43.68
21433;BME280;18592;49.708;10.900;2023-04-26T07:37:54;98757.19;;;18.83;43.95
21433;BME280;18592;49.708;10.900;2023-04-26T07:39:55;98751.28;;;18.89;44.10
21433;BME280;18592;49.708;10.900;2023-04-26T07:41:57;98752.56;;;18.97;44.47
21433;BME280;18592;49.708;10.900;2023-04-26T07:43:58;98751.84;;;19.05;44.21
21433;BME280;18592;49.708;10.900;2023-04-26T07:46:00;98748.72;;;19.12;43.66
21433;BME280;18592;49.708;10.900;2023-04-26T07:48:02;98755.78;;;19.18;43.92
21433;BME280;18592;49.708;10.900;2023-04-26T07:50:04;98762.56;;;19.25;43.52
21433;BME280;18592;49.708;10.900;2023-04-26T07:52:07;98755.31;;;19.29;43.44
21433;BME280;18592;49.708;10.900;2023-04-26T07:54:09;98757.47;;;19.32;43.59
21433;BME280;18592;49.708;10.900;2023-04-26T07:56:11;98753.56;;;19.33;42.91
21433;BME280;18592;49.708;10.900;2023-04-26T07:58:13;98760.03;;;19.29;42.12
21433;BME280;18592;49.708;10.900;2023-04-26T08:00:15;98749.38;;;19.22;41.07
21433;BME280;18592;49.708;10.900;2023-04-26T08:02:17;98762.63;;;19.20;41.96
21433;BME280;18592;49.708;10.900;2023-04-26T08:04:30;98755.78;;;19.18;41.57
21433;BME280;18592;49.708;10.900;2023-04-26T08:06:35;98756.31;;;19.20;42.27
21433;BME280;18592;49.708;10.900;2023-04-26T08:08:39;98761.22;;;19.23;42.24
21433;BME280;18592;49.708;10.900;2023-04-26T08:10:45;98756.44;;;19.28;41.92
21433;BME280;18592;49.708;10.900;2023-04-26T08:12:46;98763.00;;;19.32;42.05
21433;BME280;18592;49.708;10.900;2023-04-26T08:14:48;98761.81;;;19.38;41.61
21433;BME280;18592;49.708;10.900;2023-04-26T08:16:50;98762.25;;;19.45;42.16
21433;BME280;18592;49.708;10.900;2023-04-26T08:18:52;98757.16;;;19.52;41.84
21433;BME280;18592;49.708;10.900;2023-04-26T08:20:54;98754.81;;;19.59;42.33
21433;BME280;18592;49.708;10.900;2023-04-26T08:22:56;98765.47;;;19.66;42.65
21433;BME280;18592;49.708;10.900;2023-04-26T08:24:58;98757.88;;;19.72;42.65
21433;BME280;18592;49.708;10.900;2023-04-26T08:26:59;98762.50;;;19.76;42.72
21433;BME280;18592;49.708;10.900;2023-04-26T08:29:01;98751.34;;;19.81;42.84
21433;BME280;18592;49.708;10.900;2023-04-26T08:31:03;98753.81;;;19.83;43.24
21433;BME280;18592;49.708;10.900;2023-04-26T08:33:05;98759.53;;;19.86;42.81
21433;BME280;18592;49.708;10.900;2023-04-26T08:35:07;98760.06;;;19.88;42.78
21433;BME280;18592;49.708;10.900;2023-04-26T08:37:10;98749.81;;;19.89;43.28
21433;BME280;18592;49.708;10.900;2023-04-26T08:39:12;98759.44;;;19.91;43.04
21433;BME280;18592;49.708;10.900;2023-04-26T08:41:14;98758.00;;;19.94;42.78
21433;BME280;18592;49.708;10.900;2023-04-26T08:43:22;98750.75;;;19.98;42.55
21433;BME280;18592;49.708;10.900;2023-04-26T08:45:23;98753.41;;;20.03;42.19
21433;BME280;18592;49.708;10.900;2023-04-26T08:47:33;98752.97;;;20.09;42.33
21433;BME280;18592;49.708;10.900;2023-04-26T08:49:43;98755.84;;;20.18;42.60
21433;BME280;18592;49.708;10.900;2023-04-26T08:51:45;98755.34;;;20.30;42.60
21433;BME280;18592;49.708;10.900;2023-04-26T08:53:49;98749.31;;;20.41;42.63
21433;BME280;18592;49.708;10.900;2023-04-26T08:55:53;98746.81;;;20.53;42.88
21433;BME280;18592;49.708;10.900;2023-04-26T08:57:55;98747.09;;;20.65;42.38
21433;BME280;18592;49.708;10.900;2023-04-26T08:59:57;98744.09;;;20.75;41.86
21433;BME280;18592;49.708;10.900;2023-04-26T09:01:59;98745.78;;;20.85;41.31
21433;BME280;18592;49.708;10.900;2023-04-26T09:04:03;98744.03;;;20.89;40.05
21433;BME280;18592;49.708;10.900;2023-04-26T09:06:06;98739.63;;;20.88;39.18
21433;BME280;18592;49.708;10.900;2023-04-26T09:08:07;98744.34;;;20.87;39.21
21433;BME280;18592;49.708;10.900;2023-04-26T09:10:11;98736.56;;;20.89;39.20
21433;BME280;18592;49.708;10.900;2023-04-26T09:12:15;98739.50;;;20.93;39.50
21433;BME280;18592;49.708;10.900;2023-04-26T09:14:18;98739.88;;;21.00;39.90
21433;BME280;18592;49.708;10.900;2023-04-26T09:16:19;98734.75;;;21.07;39.86
21433;BME280;18592;49.708;10.900;2023-04-26T09:18:22;98730.28;;;21.20;40.50
21433;BME280;18592;49.708;10.900;2023-04-26T09:20:25;98732.81;;;21.30;40.10
21433;BME280;18592;49.708;10.900;2023-04-26T09:22:34;98737.25;;;21.39;40.02
21433;BME280;18592;49.708;10.900;2023-04-26T09:24:48;98732.69;;;21.43;38.78
21433;BME280;18592;49.708;10.900;2023-04-26T09:27:02;98734.50;;;21.48;38.26
21433;BME280;18592;49.708;10.900;2023-04-26T09:29:14;98726.72;;;21.50;37.39
21433;BME280;18592;49.708;10.900;2023-04-26T09:31:40;98727.34;;;21.47;37.74
21433;BME280;18592;49.708;10.900;2023-04-26T09:33:56;98730.75;;;21.44;37.99
21433;BME280;18592;49.708;10.900;2023-04-26T09:36:10;98732.53;;;21.40;37.67
21433;BME280;18592;49.708;10.900;2023-04-26T09:38:15;98717.84;;;21.39;38.43
21433;BME280;18592;49.708;10.900;2023-04-26T09:40:17;98731.09;;;21.42;39.12
21433;BME280;18592;49.708;10.900;2023-04-26T09:42:20;98725.06;;;21.49;39.60
21433;BME280;18592;49.708;10.900;2023-04-26T09:44:23;98732.28;;;21.59;39.88
21433;BME280;18592;49.708;10.900;2023-04-26T09:46:24;98726.16;;;21.70;40.15
21433;BME280;18592;49.708;10.900;2023-04-26T09:48:28;98720.34;;;21.80;39.53
21433;BME280;18592;49.708;10.900;2023-04-26T09:50:34;98720.72;;;21.87;39.37
21433;BME280;18592;49.708;10.900;2023-04-26T09:52:42;98732.81;;;21.91;38.44
21433;BME280;18592;49.708;10.900;2023-04-26T09:54:51;98724.81;;;21.90;38.08
21433;BME280;18592;49.708;10.900;2023-04-26T09:56:59;98715.56;;;21.81;35.83
21433;BME280;18592;49.708;10.900;2023-04-26T09:59:01;98715.22;;;21.74;36.80
21433;BME280;18592;49.708;10.900;2023-04-26T10:01:06;98715.06;;;21.70;37.11
21433;BME280;18592;49.708;10.900;2023-04-26T10:03:09;98710.16;;;21.67;37.34
21433;BME280;18592;49.708;10.900;2023-04-26T10:05:11;98723.84;;;21.64;36.91
21433;BME280;18592;49.708;10.900;2023-04-26T10:07:14;98714.66;;;21.55;36.77
21433;BME280;18592;49.708;10.900;2023-04-26T10:09:16;98717.38;;;21.46;36.45
21433;BME280;18592;49.708;10.900;2023-04-26T10:11:19;98720.63;;;21.39;35.56
21433;BME280;18592;49.708;10.900;2023-04-26T10:13:21;98719.44;;;21.32;36.01
21433;BME280;18592;49.708;10.900;2023-04-26T10:15:23;98723.94;;;21.28;36.46
21433;BME280;18592;49.708;10.900;2023-04-26T10:17:24;98711.88;;;21.24;37.40
21433;BME280;18592;49.708;10.900;2023-04-26T10:19:26;98707.16;;;21.24;38.37
21433;BME280;18592;49.708;10.900;2023-04-26T10:21:30;98714.00;;;21.27;39.04
21433;BME280;18592;49.708;10.900;2023-04-26T10:23:35;98714.31;;;21.25;39.16
21433;BME280;18592;49.708;10.900;2023-04-26T10:25:39;98713.53;;;21.25;39.42
21433;BME280;18592;49.708;10.900;2023-04-26T10:30:07;98704.53;;;21.28;38.66
21433;BME280;18592;49.708;10.900;2023-04-26T10:32:09;98719.09;;;21.33;39.00
21433;BME280;18592;49.708;10.900;2023-04-26T10:34:20;98705.59;;;21.40;40.29
21433;BME280;18592;49.708;10.900;2023-04-26T10:36:21;98707.31;;;21.50;40.64
21433;BME280;18592;49.708;10.900;2023-04-26T10:38:23;98711.41;;;21.61;40.97
21433;BME280;18592;49.708;10.900;2023-04-26T10:40:36;98710.16;;;21.67;40.41
21433;BME280;18592;49.708;10.900;2023-04-26T10:42:39;98704.47;;;21.72;40.52
21433;BME280;18592;49.708;10.900;2023-04-26T10:44:42;98707.41;;;21.76;40.70
21433;BME280;18592;49.708;10.900;2023-04-26T10:46:49;98712.66;;;21.77;40.95